• Join FlightAware (Why Join?)
  • Login
  • US Flag 
02:10PM EDT


 

Airport Tracker/Info


-or-


 

Live Flight TrackerFlight Track Log ✈ EGF2564 ✈ 10-May-2013 ✈ KDFW - KSHV

Flight Track Log - Related Links

Times and Time Zones

All times are in EDT time to prevent confusion due to time zone crossing. See the EGF2564 flight status page for this flight to view local times or setup timezone preferences in your user account.

Time Position Orientation Groundspeed Altitude Reporting Facility
EDT Latitude Longitude Course Direction KTS MPH feet Rate Location/Type
11:08PM 32.8532 -96.6976 99° East  Level Estimated
11:09PM 32.8422 -96.6126 99° East  Level Estimated
11:10PM 32.8311 -96.5276 99° East  Level Estimated
11:11PM 32.8199 -96.4426 99° East  Level Estimated
11:12PM 32.8087 -96.3576 99° East  Level Estimated
11:13PM 32.7974 -96.2727 99° East  Level Estimated
11:14PM 32.7861 -96.1878 99° East  Level Estimated
11:15PM 32.7747 -96.1029 99° East  Level Estimated
11:16PM 32.7632 -96.0180 99° East  Level Estimated
11:17PM 32.7517 -95.9331 99° East  Level Estimated
11:18PM 32.7402 -95.8483 99° East  Level Estimated
11:19PM 32.7285 -95.7635 99° East  Level Estimated
11:20PM 32.7169 -95.6786 99° East  Level Estimated
11:21PM 32.7051 -95.5939 99° East  Level Estimated
11:22PM 32.6933 -95.5091 99° East  Level Estimated
11:23PM 32.6815 -95.4244 99° East  Level Estimated
11:24PM 32.6696 -95.3397 99° East  Level Estimated
11:25PM 32.6576 -95.2550 100° East  Level Estimated
11:26PM 32.6456 -95.1703 100° East  Level Estimated
11:27PM 32.6335 -95.0857 100° East  Level Estimated
11:28PM 32.6214 -95.0011 100° East  Level Estimated
11:29PM 32.6092 -94.9165 100° East  Level Estimated
11:30PM 32.5969 -94.8319 100° East  Level Estimated
11:31PM 32.5846 -94.7474 100° East  Level Estimated
11:32PM 32.5723 -94.6629 100° East  Level Estimated
11:33PM 32.5599 -94.5784 100° East  Level Estimated
11:34PM 32.5474 -94.4939 100° East  Level Estimated
11:35PM 32.5349 -94.4094 100° East  Level Estimated
11:36PM 32.5223 -94.3250 100° East  Level Estimated
11:37PM 32.5096 -94.2406 100° East  Level Estimated
11:38PM 32.4969 -94.1562 100° East  Level Estimated
11:39PM 32.4842 -94.0719 100° East  Level Estimated
11:40PM 32.4714 -93.9875 100° East  Level Estimated
11:41PM 32.4585 -93.9032 100° East  Level Estimated